sensor_id;sensor_type;location;lat;lon;timestamp;pressure;altitude;pressure_sealevel;temperature;humidity
31483;BME280;18103;52.246;8.052;2023-04-26T00:00:22;100543.47;;;3.97;79.66
31483;BME280;18103;52.246;8.052;2023-04-26T00:02:47;100549.25;;;4.03;79.29
31483;BME280;18103;52.246;8.052;2023-04-26T00:05:15;100545.56;;;4.07;79.35
31483;BME280;18103;52.246;8.052;2023-04-26T00:07:43;100552.00;;;4.00;79.73
31483;BME280;18103;52.246;8.052;2023-04-26T00:10:09;100555.44;;;4.01;79.71
31483;BME280;18103;52.246;8.052;2023-04-26T00:12:35;100555.69;;;3.96;78.86
31483;BME280;18103;52.246;8.052;2023-04-26T00:15:05;100564.25;;;3.81;79.91
31483;BME280;18103;52.246;8.052;2023-04-26T00:17:31;100563.72;;;3.91;79.33
31483;BME280;18103;52.246;8.052;2023-04-26T00:19:57;100557.31;;;3.80;79.69
31483;BME280;18103;52.246;8.052;2023-04-26T00:22:23;100558.00;;;3.83;80.38
31483;BME280;18103;52.246;8.052;2023-04-26T00:24:50;100554.78;;;3.78;79.99
31483;BME280;18103;52.246;8.052;2023-04-26T00:27:18;100558.78;;;3.85;79.87
31483;BME280;18103;52.246;8.052;2023-04-26T00:29:46;100553.91;;;3.77;80.02
31483;BME280;18103;52.246;8.052;2023-04-26T00:32:13;100553.78;;;3.81;79.97
31483;BME280;18103;52.246;8.052;2023-04-26T00:34:41;100558.44;;;3.74;79.59
31483;BME280;18103;52.246;8.052;2023-04-26T00:37:06;100559.28;;;3.74;79.66
31483;BME280;18103;52.246;8.052;2023-04-26T00:39:32;100551.38;;;3.76;79.86
31483;BME280;18103;52.246;8.052;2023-04-26T00:41:59;100555.84;;;3.74;79.87
31483;BME280;18103;52.246;8.052;2023-04-26T00:44:25;100558.31;;;3.77;79.71
31483;BME280;18103;52.246;8.052;2023-04-26T00:46:52;100560.00;;;3.78;79.53
31483;BME280;18103;52.246;8.052;2023-04-26T00:49:19;100561.75;;;3.77;79.41
31483;BME280;18103;52.246;8.052;2023-04-26T00:51:49;100553.91;;;3.77;80.10
31483;BME280;18103;52.246;8.052;2023-04-26T00:54:18;100552.16;;;3.78;79.44
31483;BME280;18103;52.246;8.052;2023-04-26T00:56:44;100550.38;;;3.79;79.79
31483;BME280;18103;52.246;8.052;2023-04-26T00:59:10;100549.81;;;3.72;79.96
31483;BME280;18103;52.246;8.052;2023-04-26T01:01:35;100551.03;;;3.65;79.62
31483;BME280;18103;52.246;8.052;2023-04-26T01:04:04;100546.59;;;3.67;80.20
31483;BME280;18103;52.246;8.052;2023-04-26T01:06:34;100542.97;;;3.69;79.61
31483;BME280;18103;52.246;8.052;2023-04-26T01:09:03;100546.31;;;3.73;80.11
31483;BME280;18103;52.246;8.052;2023-04-26T01:11:32;100550.53;;;3.56;80.57
31483;BME280;18103;52.246;8.052;2023-04-26T01:13:58;100548.56;;;3.62;80.30
31483;BME280;18103;52.246;8.052;2023-04-26T01:16:25;100546.09;;;3.58;79.99
31483;BME280;18103;52.246;8.052;2023-04-26T01:18:54;100548.00;;;3.55;80.39
31483;BME280;18103;52.246;8.052;2023-04-26T01:21:20;100551.53;;;3.54;80.37
31483;BME280;18103;52.246;8.052;2023-04-26T01:23:47;100552.66;;;3.48;80.20
31483;BME280;18103;52.246;8.052;2023-04-26T01:26:12;100553.44;;;3.50;79.77
31483;BME280;18103;52.246;8.052;2023-04-26T01:28:38;100549.97;;;3.50;80.53
31483;BME280;18103;52.246;8.052;2023-04-26T01:31:03;100548.28;;;3.49;80.45
31483;BME280;18103;52.246;8.052;2023-04-26T01:33:28;100548.84;;;3.36;81.07
31483;BME280;18103;52.246;8.052;2023-04-26T01:35:54;100545.94;;;3.42;80.72
31483;BME280;18103;52.246;8.052;2023-04-26T01:38:22;100550.47;;;3.39;80.80
31483;BME280;18103;52.246;8.052;2023-04-26T01:40:48;100550.34;;;3.42;80.90
31483;BME280;18103;52.246;8.052;2023-04-26T01:43:16;100553.84;;;3.41;80.49
31483;BME280;18103;52.246;8.052;2023-04-26T01:45:46;100554.91;;;3.37;80.59
31483;BME280;18103;52.246;8.052;2023-04-26T01:48:12;100559.84;;;3.43;80.49
31483;BME280;18103;52.246;8.052;2023-04-26T01:50:37;100550.91;;;3.49;80.27
31483;BME280;18103;52.246;8.052;2023-04-26T01:53:05;100553.09;;;3.39;80.45
31483;BME280;18103;52.246;8.052;2023-04-26T01:55:32;100549.63;;;3.38;80.46
31483;BME280;18103;52.246;8.052;2023-04-26T01:57:58;100563.78;;;3.33;80.92
31483;BME280;18103;52.246;8.052;2023-04-26T02:00:23;100553.34;;;3.33;80.20
31483;BME280;18103;52.246;8.052;2023-04-26T02:02:55;100552.38;;;3.35;80.16
31483;BME280;18103;52.246;8.052;2023-04-26T02:05:23;100552.94;;;3.42;79.73
31483;BME280;18103;52.246;8.052;2023-04-26T02:07:49;100551.78;;;3.29;80.49
31483;BME280;18103;52.246;8.052;2023-04-26T02:10:15;100553.41;;;3.31;80.47
31483;BME280;18103;52.246;8.052;2023-04-26T02:12:40;100549.59;;;3.19;81.06
31483;BME280;18103;52.246;8.052;2023-04-26T02:15:07;100546.63;;;3.27;80.69
31483;BME280;18103;52.246;8.052;2023-04-26T02:17:33;100542.53;;;3.21;80.67
31483;BME280;18103;52.246;8.052;2023-04-26T02:20:02;100542.09;;;3.12;81.40
31483;BME280;18103;52.246;8.052;2023-04-26T02:22:27;100540.44;;;3.11;81.43
31483;BME280;18103;52.246;8.052;2023-04-26T02:24:56;100550.72;;;3.14;81.38
31483;BME280;18103;52.246;8.052;2023-04-26T02:27:21;100549.41;;;3.24;81.03
31483;BME280;18103;52.246;8.052;2023-04-26T02:29:47;100552.91;;;3.23;80.65
31483;BME280;18103;52.246;8.052;2023-04-26T02:32:13;100552.16;;;3.21;81.32
31483;BME280;18103;52.246;8.052;2023-04-26T02:34:38;100550.44;;;3.20;81.36
31483;BME280;18103;52.246;8.052;2023-04-26T02:37:04;100550.72;;;3.14;81.46
31483;BME280;18103;52.246;8.052;2023-04-26T02:39:29;100559.38;;;3.14;81.07
31483;BME280;18103;52.246;8.052;2023-04-26T02:41:56;100564.69;;;3.13;81.35
31483;BME280;18103;52.246;8.052;2023-04-26T02:44:24;100559.66;;;3.08;80.66
31483;BME280;18103;52.246;8.052;2023-04-26T02:46:55;100557.91;;;3.08;81.08
31483;BME280;18103;52.246;8.052;2023-04-26T02:49:23;100555.34;;;3.07;81.63
31483;BME280;18103;52.246;8.052;2023-04-26T02:51:48;100553.66;;;3.06;81.38
31483;BME280;18103;52.246;8.052;2023-04-26T02:54:13;100566.53;;;3.11;81.01
31483;BME280;18103;52.246;8.052;2023-04-26T02:56:39;100555.88;;;3.15;80.86
31483;BME280;18103;52.246;8.052;2023-04-26T02:59:06;100569.13;;;3.11;81.23
31483;BME280;18103;52.246;8.052;2023-04-26T03:01:31;100559.47;;;3.13;80.99
31483;BME280;18103;52.246;8.052;2023-04-26T03:03:59;100559.00;;;3.03;81.47
31483;BME280;18103;52.246;8.052;2023-04-26T03:06:25;100555.56;;;3.02;81.48
31483;BME280;18103;52.246;8.052;2023-04-26T03:08:50;100564.03;;;3.07;81.08
31483;BME280;18103;52.246;8.052;2023-04-26T03:11:15;100560.44;;;3.10;80.95
31483;BME280;18103;52.246;8.052;2023-04-26T03:13:41;100559.84;;;3.03;81.43
31483;BME280;18103;52.246;8.052;2023-04-26T03:16:08;100555.50;;;3.04;81.31
31483;BME280;18103;52.246;8.052;2023-04-26T03:18:34;100559.66;;;3.08;80.63
31483;BME280;18103;52.246;8.052;2023-04-26T03:21:00;100560.50;;;3.08;80.89
31483;BME280;18103;52.246;8.052;2023-04-26T03:23:28;100550.22;;;3.05;80.77
31483;BME280;18103;52.246;8.052;2023-04-26T03:25:53;100554.53;;;3.06;81.11
31483;BME280;18103;52.246;8.052;2023-04-26T03:28:18;100558.88;;;3.06;81.03
31483;BME280;18103;52.246;8.052;2023-04-26T03:30:44;100550.59;;;3.17;80.72
31483;BME280;18103;52.246;8.052;2023-04-26T03:33:10;100551.97;;;3.05;81.02
31483;BME280;18103;52.246;8.052;2023-04-26T03:35:38;100555.44;;;3.05;80.76
31483;BME280;18103;52.246;8.052;2023-04-26T03:38:06;100555.66;;;3.01;81.09
31483;BME280;18103;52.246;8.052;2023-04-26T03:40:31;100552.31;;;2.97;81.29
31483;BME280;18103;52.246;8.052;2023-04-26T03:42:57;100547.31;;;2.93;81.59
31483;BME280;18103;52.246;8.052;2023-04-26T03:45:22;100552.44;;;2.94;81.59
31483;BME280;18103;52.246;8.052;2023-04-26T03:47:48;100547.03;;;2.99;81.46
31483;BME280;18103;52.246;8.052;2023-04-26T03:50:14;100545.47;;;2.95;81.75
31483;BME280;18103;52.246;8.052;2023-04-26T03:52:39;100544.94;;;2.86;82.04
31483;BME280;18103;52.246;8.052;2023-04-26T03:55:05;100552.63;;;2.89;81.54
31483;BME280;18103;52.246;8.052;2023-04-26T03:57:33;100547.31;;;2.93;81.07
31483;BME280;18103;52.246;8.052;2023-04-26T04:00:00;100546.72;;;2.86;81.62
31483;BME280;18103;52.246;8.052;2023-04-26T04:02:26;100547.22;;;2.94;81.60
31483;BME280;18103;52.246;8.052;2023-04-26T04:04:51;100552.16;;;3.00;81.12
31483;BME280;18103;52.246;8.052;2023-04-26T04:07:17;100550.28;;;2.83;81.63
31483;BME280;18103;52.246;8.052;2023-04-26T04:09:43;100549.41;;;2.84;81.84
31483;BME280;18103;52.246;8.052;2023-04-26T04:12:10;100548.59;;;2.82;82.08
31483;BME280;18103;52.246;8.052;2023-04-26T04:14:36;100543.91;;;2.90;81.50
31483;BME280;18103;52.246;8.052;2023-04-26T04:17:03;100544.94;;;2.86;82.34
31483;BME280;18103;52.246;8.052;2023-04-26T04:19:29;100543.53;;;2.79;81.88
31483;BME280;18103;52.246;8.052;2023-04-26T04:21:57;100548.66;;;2.81;82.30
31483;BME280;18103;52.246;8.052;2023-04-26T04:24:22;100548.59;;;2.82;82.19
31483;BME280;18103;52.246;8.052;2023-04-26T04:26:53;100551.13;;;2.84;81.86
31483;BME280;18103;52.246;8.052;2023-04-26T04:29:21;100559.75;;;2.86;81.87
31483;BME280;18103;52.246;8.052;2023-04-26T04:31:46;100553.63;;;2.87;81.61
31483;BME280;18103;52.246;8.052;2023-04-26T04:34:12;100559.16;;;2.79;82.18
31483;BME280;18103;52.246;8.052;2023-04-26T04:36:37;100559.47;;;2.92;81.91
31483;BME280;18103;52.246;8.052;2023-04-26T04:39:05;100559.69;;;2.87;81.73
31483;BME280;18103;52.246;8.052;2023-04-26T04:41:37;100554.19;;;2.94;81.67
31483;BME280;18103;52.246;8.052;2023-04-26T04:44:02;100564.63;;;2.94;81.91
31483;BME280;18103;52.246;8.052;2023-04-26T04:46:31;100553.44;;;2.91;82.22
31483;BME280;18103;52.246;8.052;2023-04-26T04:48:58;100558.34;;;2.98;82.36
31483;BME280;18103;52.246;8.052;2023-04-26T04:51:23;100554.31;;;2.90;82.22
31483;BME280;18103;52.246;8.052;2023-04-26T04:53:49;100555.44;;;3.05;81.86
31483;BME280;18103;52.246;8.052;2023-04-26T04:56:15;100564.75;;;3.11;81.95
31483;BME280;18103;52.246;8.052;2023-04-26T04:58:42;100570.72;;;3.13;81.77
31483;BME280;18103;52.246;8.052;2023-04-26T05:01:07;100559.75;;;3.25;80.97
31483;BME280;18103;52.246;8.052;2023-04-26T05:03:33;100566.69;;;3.27;81.25
31483;BME280;18103;52.246;8.052;2023-04-26T05:05:59;100571.41;;;3.37;81.05
31483;BME280;18103;52.246;8.052;2023-04-26T05:08:28;100565.16;;;3.41;81.13
31483;BME280;18103;52.246;8.052;2023-04-26T05:10:53;100564.13;;;3.44;81.50
31483;BME280;18103;52.246;8.052;2023-04-26T05:13:19;100565.00;;;3.45;81.46
31483;BME280;18103;52.246;8.052;2023-04-26T05:15:45;100571.63;;;3.52;81.11
31483;BME280;18103;52.246;8.052;2023-04-26T05:18:10;100574.97;;;3.55;81.30
31483;BME280;18103;52.246;8.052;2023-04-26T05:20:35;100579.75;;;3.65;81.30
31483;BME280;18103;52.246;8.052;2023-04-26T05:23:01;100581.16;;;3.72;81.31
31483;BME280;18103;52.246;8.052;2023-04-26T05:25:26;100574.47;;;3.85;81.36
31483;BME280;18103;52.246;8.052;2023-04-26T05:27:54;100573.16;;;3.94;80.80
31483;BME280;18103;52.246;8.052;2023-04-26T05:30:22;100578.69;;;3.88;81.13
31483;BME280;18103;52.246;8.052;2023-04-26T05:32:47;100575.50;;;4.00;80.74
31483;BME280;18103;52.246;8.052;2023-04-26T05:35:14;100578.31;;;3.96;80.94
31483;BME280;18103;52.246;8.052;2023-04-26T05:37:39;100583.59;;;4.13;80.76
31483;BME280;18103;52.246;8.052;2023-04-26T05:40:06;100598.63;;;4.08;80.77
31483;BME280;18103;52.246;8.052;2023-04-26T05:42:36;100591.63;;;4.08;80.23
31483;BME280;18103;52.246;8.052;2023-04-26T05:45:01;100598.13;;;4.19;80.65
31483;BME280;18103;52.246;8.052;2023-04-26T05:47:27;100592.41;;;4.30;80.34
31483;BME280;18103;52.246;8.052;2023-04-26T05:49:52;100597.16;;;4.39;80.01
31483;BME280;18103;52.246;8.052;2023-04-26T05:52:20;100600.75;;;4.36;80.58
31483;BME280;18103;52.246;8.052;2023-04-26T05:54:45;100591.03;;;4.57;79.98
31483;BME280;18103;52.246;8.052;2023-04-26T05:57:11;100595.13;;;4.80;79.31
31483;BME280;18103;52.246;8.052;2023-04-26T05:59:39;100598.56;;;4.81;79.21
31483;BME280;18103;52.246;8.052;2023-04-26T06:02:04;100600.72;;;4.73;78.32
31483;BME280;18103;52.246;8.052;2023-04-26T06:04:32;100596.97;;;4.78;77.88
31483;BME280;18103;52.246;8.052;2023-04-26T06:07:00;100589.56;;;5.04;77.41
31483;BME280;18103;52.246;8.052;2023-04-26T06:09:25;100599.50;;;4.80;77.56
31483;BME280;18103;52.246;8.052;2023-04-26T06:11:51;100608.25;;;4.96;77.06
31483;BME280;18103;52.246;8.052;2023-04-26T06:14:19;100593.97;;;5.04;77.02
31483;BME280;18103;52.246;8.052;2023-04-26T06:16:44;100604.56;;;5.18;77.16
31483;BME280;18103;52.246;8.052;2023-04-26T06:19:10;100606.53;;;5.30;76.84
31483;BME280;18103;52.246;8.052;2023-04-26T06:21:40;100607.19;;;5.34;76.52
31483;BME280;18103;52.246;8.052;2023-04-26T06:24:08;100603.13;;;5.28;77.31
31483;BME280;18103;52.246;8.052;2023-04-26T06:26:33;100616.00;;;5.33;76.53
31483;BME280;18103;52.246;8.052;2023-04-26T06:28:59;100606.25;;;5.19;76.74
31483;BME280;18103;52.246;8.052;2023-04-26T06:31:24;100615.66;;;5.39;76.74
31483;BME280;18103;52.246;8.052;2023-04-26T06:33:49;100621.44;;;5.46;76.40
31483;BME280;18103;52.246;8.052;2023-04-26T06:36:15;100627.13;;;5.54;75.87
31483;BME280;18103;52.246;8.052;2023-04-26T06:38:42;100625.25;;;5.56;76.03
31483;BME280;18103;52.246;8.052;2023-04-26T06:41:13;100620.97;;;5.71;74.78
31483;BME280;18103;52.246;8.052;2023-04-26T06:43:41;100629.13;;;5.98;74.92
31483;BME280;18103;52.246;8.052;2023-04-26T06:46:06;100632.59;;;5.99;74.56
31483;BME280;18103;52.246;8.052;2023-04-26T06:48:32;100635.06;;;6.02;73.44
31483;BME280;18103;52.246;8.052;2023-04-26T06:51:07;100623.66;;;6.03;74.41
31483;BME280;18103;52.246;8.052;2023-04-26T06:53:38;100629.38;;;6.26;73.54
31483;BME280;18103;52.246;8.052;2023-04-26T06:56:06;100624.97;;;6.26;72.66
31483;BME280;18103;52.246;8.052;2023-04-26T06:58:31;100626.31;;;6.49;72.58
31483;BME280;18103;52.246;8.052;2023-04-26T07:00:57;100626.09;;;6.38;73.11
31483;BME280;18103;52.246;8.052;2023-04-26T07:03:25;100625.03;;;6.57;72.02
31483;BME280;18103;52.246;8.052;2023-04-26T07:05:50;100621.28;;;6.61;73.36
31483;BME280;18103;52.246;8.052;2023-04-26T07:08:16;100630.00;;;6.61;71.90
31483;BME280;18103;52.246;8.052;2023-04-26T07:10:41;100632.50;;;6.79;70.97
31483;BME280;18103;52.246;8.052;2023-04-26T07:13:09;100624.16;;;6.72;70.42
31483;BME280;18103;52.246;8.052;2023-04-26T07:15:34;100624.97;;;7.03;70.30
31483;BME280;18103;52.246;8.052;2023-04-26T07:18:00;100636.38;;;6.88;70.07
31483;BME280;18103;52.246;8.052;2023-04-26T07:20:27;100635.31;;;7.21;70.44
31483;BME280;18103;52.246;8.052;2023-04-26T07:22:55;100620.69;;;7.16;70.65
31483;BME280;18103;52.246;8.052;2023-04-26T07:25:21;100622.94;;;7.23;70.47
31483;BME280;18103;52.246;8.052;2023-04-26T07:27:48;100630.66;;;7.40;70.26
31483;BME280;18103;52.246;8.052;2023-04-26T07:30:16;100629.59;;;7.43;69.73
31483;BME280;18103;52.246;8.052;2023-04-26T07:32:44;100629.44;;;7.46;68.97
31483;BME280;18103;52.246;8.052;2023-04-26T07:35:10;100633.38;;;7.53;68.98
31483;BME280;18103;52.246;8.052;2023-04-26T07:37:41;100634.19;;;7.68;68.30
31483;BME280;18103;52.246;8.052;2023-04-26T07:40:09;100635.03;;;7.54;68.14
31483;BME280;18103;52.246;8.052;2023-04-26T07:42:38;100627.72;;;7.59;67.38
31483;BME280;18103;52.246;8.052;2023-04-26T07:45:03;100627.09;;;7.56;67.27
31483;BME280;18103;52.246;8.052;2023-04-26T07:47:31;100635.03;;;7.83;68.28
31483;BME280;18103;52.246;8.052;2023-04-26T07:49:56;100626.13;;;7.85;66.91
31483;BME280;18103;52.246;8.052;2023-04-26T07:52:22;100626.38;;;7.95;67.57
31483;BME280;18103;52.246;8.052;2023-04-26T07:54:47;100634.00;;;7.85;67.28
31483;BME280;18103;52.246;8.052;2023-04-26T07:57:15;100634.69;;;8.16;67.49
31483;BME280;18103;52.246;8.052;2023-04-26T07:59:41;100636.66;;;7.71;67.20
31483;BME280;18103;52.246;8.052;2023-04-26T08:02:06;100642.47;;;7.91;67.34
31483;BME280;18103;52.246;8.052;2023-04-26T08:04:32;100634.38;;;7.94;66.91
31483;BME280;18103;52.246;8.052;2023-04-26T08:06:59;100641.34;;;7.66;66.89
31483;BME280;18103;52.246;8.052;2023-04-26T08:09:26;100643.19;;;7.64;66.66
31483;BME280;18103;52.246;8.052;2023-04-26T08:11:52;100638.50;;;7.83;66.83
31483;BME280;18103;52.246;8.052;2023-04-26T08:14:19;100627.25;;;7.81;67.00
31483;BME280;18103;52.246;8.052;2023-04-26T08:16:49;100636.34;;;7.90;66.53
31483;BME280;18103;52.246;8.052;2023-04-26T08:19:15;100636.13;;;7.93;66.02
31483;BME280;18103;52.246;8.052;2023-04-26T08:21:43;100625.81;;;7.90;67.06
31483;BME280;18103;52.246;8.052;2023-04-26T08:24:10;100630.00;;;8.07;66.31
31483;BME280;18103;52.246;8.052;2023-04-26T08:26:36;100638.00;;;8.05;66.32
31483;BME280;18103;52.246;8.052;2023-04-26T08:29:03;100639.13;;;8.01;66.23
31483;BME280;18103;52.246;8.052;2023-04-26T08:31:29;100630.88;;;8.08;65.78
31483;BME280;18103;52.246;8.052;2023-04-26T08:33:57;100634.22;;;8.10;65.24
31483;BME280;18103;52.246;8.052;2023-04-26T08:36:24;100636.50;;;8.43;64.79
31483;BME280;18103;52.246;8.052;2023-04-26T08:38:50;100632.31;;;7.99;64.23
31483;BME280;18103;52.246;8.052;2023-04-26T08:41:21;100641.50;;;7.92;63.96
31483;BME280;18103;52.246;8.052;2023-04-26T08:43:49;100633.78;;;8.03;63.78
31483;BME280;18103;52.246;8.052;2023-04-26T08:46:17;100641.09;;;8.54;64.43
31483;BME280;18103;52.246;8.052;2023-04-26T08:48:45;100631.63;;;8.37;63.42
31483;BME280;18103;52.246;8.052;2023-04-26T08:51:16;100632.91;;;8.71;63.43
31483;BME280;18103;52.246;8.052;2023-04-26T08:53:46;100638.13;;;8.46;62.12
31483;BME280;18103;52.246;8.052;2023-04-26T08:56:14;100628.97;;;8.92;62.02
31483;BME280;18103;52.246;8.052;2023-04-26T08:58:39;100631.75;;;8.35;61.59
31483;BME280;18103;52.246;8.052;2023-04-26T09:01:05;100642.38;;;8.34;62.02
31483;BME280;18103;52.246;8.052;2023-04-26T09:03:32;100635.47;;;8.46;61.85
31483;BME280;18103;52.246;8.052;2023-04-26T09:05:58;100632.47;;;8.37;60.59
31483;BME280;18103;52.246;8.052;2023-04-26T09:08:24;100637.34;;;8.44;61.13
31483;BME280;18103;52.246;8.052;2023-04-26T09:10:49;100640.16;;;8.40;59.93
31483;BME280;18103;52.246;8.052;2023-04-26T09:13:15;100642.84;;;8.26;58.84
31483;BME280;18103;52.246;8.052;2023-04-26T09:15:40;100639.19;;;8.56;59.00
31483;BME280;18103;52.246;8.052;2023-04-26T09:18:19;100641.66;;;8.59;58.78
31483;BME280;18103;52.246;8.052;2023-04-26T09:20:45;100636.59;;;8.42;58.40
31483;BME280;18103;52.246;8.052;2023-04-26T09:23:12;100630.41;;;8.43;59.56
31483;BME280;18103;52.246;8.052;2023-04-26T09:25:39;100640.88;;;8.30;59.20
31483;BME280;18103;52.246;8.052;2023-04-26T09:28:19;100638.09;;;8.73;60.03
31483;BME280;18103;52.246;8.052;2023-04-26T09:30:47;100640.88;;;8.57;60.70
31483;BME280;18103;52.246;8.052;2023-04-26T09:33:13;100646.66;;;8.49;60.75
31483;BME280;18103;52.246;8.052;2023-04-26T09:35:40;100638.41;;;8.81;60.46
31483;BME280;18103;52.246;8.052;2023-04-26T09:38:11;100642.72;;;8.69;59.34
31483;BME280;18103;52.246;8.052;2023-04-26T09:40:40;100650.25;;;8.61;59.45
31483;BME280;18103;52.246;8.052;2023-04-26T09:43:15;100649.19;;;8.36;58.36
31483;BME280;18103;52.246;8.052;2023-04-26T09:45:53;100641.75;;;8.16;58.22
31483;BME280;18103;52.246;8.052;2023-04-26T09:48:23;100643.03;;;8.23;58.42
31483;BME280;18103;52.246;8.052;2023-04-26T09:50:58;100636.66;;;8.27;58.25
31483;BME280;18103;52.246;8.052;2023-04-26T09:53:45;100643.75;;;8.39;58.88
31483;BME280;18103;52.246;8.052;2023-04-26T09:56:12;100637.03;;;8.76;59.71
31483;BME280;18103;52.246;8.052;2023-04-26T10:01:22;100640.53;;;8.76;57.52
31483;BME280;18103;52.246;8.052;2023-04-26T10:03:48;100639.53;;;9.17;57.22
31483;BME280;18103;52.246;8.052;2023-04-26T10:06:16;100633.59;;;9.01;56.60
31483;BME280;18103;52.246;8.052;2023-04-26T10:08:42;100635.66;;;9.49;57.77
31483;BME280;18103;52.246;8.052;2023-04-26T10:11:08;100625.75;;;9.27;55.21
31483;BME280;18103;52.246;8.052;2023-04-26T10:13:38;100631.22;;;9.36;56.32
31483;BME280;18103;52.246;8.052;2023-04-26T10:16:04;100643.66;;;9.21;57.08
31483;BME280;18103;52.246;8.052;2023-04-26T10:18:36;100635.84;;;9.33;57.09
31483;BME280;18103;52.246;8.052;2023-04-26T10:21:29;100634.69;;;9.24;58.23
31483;BME280;18103;52.246;8.052;2023-04-26T10:23:58;100642.97;;;8.92;58.69
31483;BME280;18103;52.246;8.052;2023-04-26T10:29:11;100638.53;;;8.80;59.80
31483;BME280;18103;52.246;8.052;2023-04-26T10:32:04;100641.00;;;8.96;59.91
31483;BME280;18103;52.246;8.052;2023-04-26T10:34:33;100632.34;;;8.94;60.03
31483;BME280;18103;52.246;8.052;2023-04-26T10:37:09;100624.44;;;8.81;60.31
31483;BME280;18103;52.246;8.052;2023-04-26T10:39:35;100626.75;;;8.85;59.71
31483;BME280;18103;52.246;8.052;2023-04-26T10:44:54;100619.59;;;8.87;59.46
31483;BME280;18103;52.246;8.052;2023-04-26T10:50:09;100623.59;;;8.93;59.88
31483;BME280;18103;52.246;8.052;2023-04-26T10:53:03;100617.94;;;9.25;60.73
31483;BME280;18103;52.246;8.052;2023-04-26T10:55:42;100619.44;;;9.29;58.99
31483;BME280;18103;52.246;8.052;2023-04-26T10:58:39;100614.16;;;9.42;59.01
31483;BME280;18103;52.246;8.052;2023-04-26T11:01:15;100622.06;;;9.42;59.74
31483;BME280;18103;52.246;8.052;2023-04-26T11:03:42;100616.25;;;9.37;59.08
31483;BME280;18103;52.246;8.052;2023-04-26T11:06:09;100622.25;;;9.52;59.60
31483;BME280;18103;52.246;8.052;2023-04-26T11:08:39;100614.47;;;9.37;59.29
31483;BME280;18103;52.246;8.052;2023-04-26T11:11:10;100617.41;;;9.33;59.63
31483;BME280;18103;52.246;8.052;2023-04-26T11:13:37;100623.00;;;9.41;59.88
31483;BME280;18103;52.246;8.052;2023-04-26T11:16:08;100627.31;;;9.42;59.61
31483;BME280;18103;52.246;8.052;2023-04-26T11:18:39;100623.84;;;9.16;59.54
31483;BME280;18103;52.246;8.052;2023-04-26T11:21:06;100622.25;;;9.26;59.99
31483;BME280;18103;52.246;8.052;2023-04-26T11:23:32;100622.03;;;9.16;60.74
31483;BME280;18103;52.246;8.052;2023-04-26T11:26:05;100624.47;;;9.45;61.10
31483;BME280;18103;52.246;8.052;2023-04-26T11:28:33;100621.94;;;9.31;60.64
31483;BME280;18103;52.246;8.052;2023-04-26T11:30:59;100620.47;;;9.27;60.05
31483;BME280;18103;52.246;8.052;2023-04-26T11:33:28;100613.13;;;9.32;60.21
31483;BME280;18103;52.246;8.052;2023-04-26T11:35:54;100625.53;;;9.17;60.64
31483;BME280;18103;52.246;8.052;2023-04-26T11:38:27;100627.41;;;9.15;60.44
31483;BME280;18103;52.246;8.052;2023-04-26T11:40:59;100627.22;;;9.31;60.66
31483;BME280;18103;52.246;8.052;2023-04-26T11:45:58;100621.84;;;9.32;59.22
31483;BME280;18103;52.246;8.052;2023-04-26T11:48:27;100629.09;;;9.29;59.57
31483;BME280;18103;52.246;8.052;2023-04-26T11:50:55;100621.41;;;9.25;58.94
31483;BME280;18103;52.246;8.052;2023-04-26T11:53:21;100623.66;;;9.32;59.31
31483;BME280;18103;52.246;8.052;2023-04-26T11:55:46;100626.91;;;9.35;59.49
31483;BME280;18103;52.246;8.052;2023-04-26T11:58:13;100624.47;;;9.45;59.76
31483;BME280;18103;52.246;8.052;2023-04-26T12:00:59;100620.78;;;9.35;58.13
31483;BME280;18103;52.246;8.052;2023-04-26T12:03:32;100625.75;;;9.39;58.54
31483;BME280;18103;52.246;8.052;2023-04-26T12:06:02;100627.00;;;9.47;58.25
31483;BME280;18103;52.246;8.052;2023-04-26T12:08:28;100629.94;;;9.55;58.47
31483;BME280;18103;52.246;8.052;2023-04-26T12:10:58;100636.06;;;9.68;57.02
31483;BME280;18103;52.246;8.052;2023-04-26T12:13:24;100637.75;;;9.56;57.31
31483;BME280;18103;52.246;8.052;2023-04-26T12:15:49;100634.78;;;9.74;56.79
31483;BME280;18103;52.246;8.052;2023-04-26T12:18:18;100639.78;;;9.90;55.13
31483;BME280;18103;52.246;8.052;2023-04-26T12:20:48;100642.41;;;10.03;55.82
31483;BME280;18103;52.246;8.052;2023-04-26T12:23:16;100635.34;;;10.40;55.68
31483;BME280;18103;52.246;8.052;2023-04-26T12:25:55;100633.84;;;10.85;55.32
31483;BME280;18103;52.246;8.052;2023-04-26T12:28:21;100627.25;;;11.71;56.05
31483;BME280;18103;52.246;8.052;2023-04-26T12:30:47;100624.59;;;11.82;53.77
31483;BME280;18103;52.246;8.052;2023-04-26T12:33:12;100621.22;;;11.69;52.26
31483;BME280;18103;52.246;8.052;2023-04-26T12:35:38;100621.97;;;11.49;51.61
31483;BME280;18103;52.246;8.052;2023-04-26T12:38:06;100624.81;;;11.57;50.81
31483;BME280;18103;52.246;8.052;2023-04-26T12:40:31;100621.47;;;11.77;51.49
31483;BME280;18103;52.246;8.052;2023-04-26T12:42:59;100618.44;;;12.16;51.27
31483;BME280;18103;52.246;8.052;2023-04-26T12:45:25;100610.38;;;12.18;50.04
31483;BME280;18103;52.246;8.052;2023-04-26T12:47:55;100607.09;;;12.25;49.33
31483;BME280;18103;52.246;8.052;2023-04-26T12:50:20;100617.84;;;12.45;49.19
31483;BME280;18103;52.246;8.052;2023-04-26T12:52:46;100613.50;;;12.11;48.66
31483;BME280;18103;52.246;8.052;2023-04-26T12:55:14;100607.94;;;12.26;49.19
31483;BME280;18103;52.246;8.052;2023-04-26T12:57:43;100608.69;;;12.17;49.71
31483;BME280;18103;52.246;8.052;2023-04-26T13:00:14;100613.63;;;11.87;50.09
31483;BME280;18103;52.246;8.052;2023-04-26T13:02:40;100611.13;;;11.97;51.01
31483;BME280;18103;52.246;8.052;2023-04-26T13:05:07;100613.88;;;11.84;51.14
31483;BME280;18103;52.246;8.052;2023-04-26T13:07:34;100613.91;;;11.73;50.64
31483;BME280;18103;52.246;8.052;2023-04-26T13:10:03;100621.22;;;11.69;51.27
31483;BME280;18103;52.246;8.052;2023-04-26T13:12:29;100612.56;;;11.33;50.90
31483;BME280;18103;52.246;8.052;2023-04-26T13:14:54;100620.25;;;10.78;51.26